SASA

Martin Miguel De Guemes International Airport

Salta, Argentina
TAF SASA 162300Z 1700/1724 05005KT 9999 SCT030 OVC060 TX18/1718Z TN08/1710Z BECMG 1705/1708 32005KT 4000 DZ OVC010 BECMG 1713/1716 05010KT 9999 SCT020
Issued Valid From Valid To
Jul-16 @ 23:00 UTC
(an hour ago)
Jul-17 @ 00:00 UTC
(24 minutes ago)
Jul-18 @ 00:00 UTC
(in 24 hours)
Jul-17 @ 00:00 to Jul-17 @ 05:00
TAF SASA 162300Z 1700/1724 05005KT 9999 SCT030 OVC060 TX18/1718Z TN08/1710Z
Wind Visibility Clouds
50° at 5 knots 10,000+ meters
  • Scattered at 3,000' AGL
  • Overcast at 6,000' AGL
Becoming Jul-17 @ 05:00 to Jul-17 @ 13:00
BECMG 1705/1708 32005KT 4000 DZ OVC010
Wind Visibility Clouds Conditions
320° at 5 knots 4,007 meters
  • Overcast at 1,000' AGL
  • Drizzle
Becoming Jul-17 @ 13:00 to Jul-18 @ 00:00
BECMG 1713/1716 05010KT 9999 SCT020
Wind Visibility Clouds Conditions
50° at 10 knots 10,000+ meters
  • Scattered at 2,000' AGL
  • Drizzle
TAF SASA 162300Z 1700/1724 05005KT 9999 SCT030 OVC060 TX18/1718Z TN08/1710Z BECMG 1705/1708 32005KT 4000 DZ OVC010 BECMG 1713/1716 05010KT 9999 SCT020
Issued Jul-16 @ 23:00 UTC
(an hour ago)
Valid From Jul-17 @ 00:00 UTC
(24 minutes ago)
Valid To Jul-18 @ 00:00 UTC
(in 24 hours)
Jul-17 @ 00:00 - Jul-17 @ 05:00
Wind Visibility
50° at 5 knots 10,000+ meters
Clouds
  • Scattered at 3,000' AGL
  • Overcast at 6,000' AGL
Becoming Jul-17 @ 05:00 - Jul-17 @ 13:00
Wind Visibility
320° at 5 knots 4,007 meters
Clouds
  • Overcast at 1,000' AGL
Conditions
  • Drizzle
Becoming Jul-17 @ 13:00 - Jul-18 @ 00:00
Wind Visibility
50° at 10 knots 10,000+ meters
Clouds
  • Scattered at 2,000' AGL
Conditions
  • Drizzle